Time,TemperatureF,DewpointF,PressureIn,WindDirection,WindDirectionDegrees,WindSpeedMPH,WindSpeedGustMPH,Humidity,HourlyPrecipIn,Conditions,Clouds,dailyrainin,SoftwareType,DateUTC
2013-01-16 00:30:00,36.0,25.0,30.17,NNE,22,2.0,3.0,68,0.00,,,0.00,TxWx,2013-01-16 05:30:00,
2013-01-16 00:35:00,36.0,25.0,30.17,ENE,67,1.0,1.0,68,0.00,,,0.00,TxWx,2013-01-16 05:35:00,
2013-01-16 00:40:00,36.0,25.0,30.17,East,90,1.0,1.0,68,0.00,,,0.00,TxWx,2013-01-16 05:40:00,
2013-01-16 00:47:00,36.0,25.0,30.18,ESE,112,1.0,1.0,68,0.00,,,0.00,TxWx,2013-01-16 05:47:00,
2013-01-16 00:52:00,36.0,25.0,30.18,SE,135,0.0,0.0,68,0.00,,,0.00,TxWx,2013-01-16 05:52:00,
2013-01-16 00:57:00,36.0,25.0,30.18,SSE,157,1.0,1.0,68,0.00,,,0.00,TxWx,2013-01-16 05:57:00,
2013-01-16 01:02:00,36.0,25.0,30.18,SSE,157,1.0,1.0,68,0.00,,,0.00,TxWx,2013-01-16 06:02:00,
2013-01-16 01:07:00,36.0,25.0,30.18,SSE,157,0.0,0.0,68,0.00,,,0.00,TxWx,2013-01-16 06:07:00,
2013-01-16 01:12:00,36.0,25.0,30.18,SSE,157,0.0,0.0,68,0.00,,,0.00,TxWx,2013-01-16 06:12:00,
2013-01-16 01:17:00,36.0,25.0,30.18,SSE,157,0.0,0.0,68,0.00,,,0.00,TxWx,2013-01-16 06:17:00,
2013-01-16 01:22:00,36.0,25.0,30.17,SE,135,0.0,0.0,68,0.00,,,0.00,TxWx,2013-01-16 06:22:00,
2013-01-16 01:27:00,36.0,25.0,30.17,SW,225,1.0,1.0,68,0.00,,,0.00,TxWx,2013-01-16 06:27:00,
2013-01-16 01:33:00,36.0,25.0,30.17,NW,315,1.0,1.0,68,0.00,,,0.00,TxWx,2013-01-16 06:33:00,
2013-01-16 01:38:00,36.0,25.0,30.17,NW,315,0.0,0.0,68,0.00,,,0.00,TxWx,2013-01-16 06:38:00,
2013-01-16 01:46:00,36.0,26.0,30.17,NNE,22,1.0,1.0,69,0.00,,,0.00,TxWx,2013-01-16 06:46:00,
2013-01-16 01:51:00,36.0,26.0,30.17,WNW,292,1.0,1.0,69,0.00,,,0.00,TxWx,2013-01-16 06:51:00,
2013-01-16 01:56:00,36.0,26.0,30.16,WNW,292,0.0,0.0,69,0.00,,,0.00,TxWx,2013-01-16 06:56:00,
2013-01-16 02:01:00,36.0,26.0,30.16,WNW,292,0.0,0.0,69,0.00,,,0.00,TxWx,2013-01-16 07:01:00,
2013-01-16 02:06:00,36.0,26.0,30.16,NE,45,1.0,1.0,69,0.00,,,0.00,TxWx,2013-01-16 07:06:00,
2013-01-16 02:12:00,36.0,26.0,30.16,NNE,22,1.0,1.0,69,0.00,,,0.00,TxWx,2013-01-16 07:12:00,
2013-01-16 02:17:00,36.0,26.0,30.17,North,0,3.0,3.0,69,0.00,,,0.00,TxWx,2013-01-16 07:17:00,
2013-01-16 02:23:00,36.0,26.0,30.17,NNW,337,3.0,4.0,69,0.00,,,0.00,TxWx,2013-01-16 07:23:00,
2013-01-16 02:28:00,36.0,26.0,30.16,NW,315,1.0,3.0,69,0.00,,,0.00,TxWx,2013-01-16 07:28:00,
2013-01-16 02:33:00,36.0,26.0,30.16,ENE,67,3.0,3.0,69,0.00,,,0.00,TxWx,2013-01-16 07:33:00,
2013-01-16 02:38:00,36.0,26.0,30.15,ESE,112,1.0,1.0,69,0.00,,,0.00,TxWx,2013-01-16 07:38:00,
2013-01-16 02:44:00,36.0,26.0,30.15,NNW,337,1.0,1.0,69,0.00,,,0.00,TxWx,2013-01-16 07:44:00,
2013-01-16 02:49:00,36.0,26.0,30.14,NNW,337,2.0,2.0,69,0.00,,,0.00,TxWx,2013-01-16 07:49:00,
2013-01-16 02:54:00,36.0,26.0,30.15,NNW,337,3.0,3.0,69,0.00,,,0.00,TxWx,2013-01-16 07:54:00,
2013-01-16 03:00:00,35.0,25.0,30.15,NNW,337,5.0,5.0,69,0.00,,,0.00,TxWx,2013-01-16 08:00:00,
2013-01-16 03:05:00,35.0,25.0,30.14,NNW,337,4.0,4.0,70,0.00,,,0.00,TxWx,2013-01-16 08:05:00,
2013-01-16 03:10:00,35.0,25.0,30.14,NW,315,1.0,1.0,70,0.00,,,0.00,TxWx,2013-01-16 08:10:00,
2013-01-16 03:16:00,34.0,25.0,30.14,NW,315,1.0,2.0,71,0.00,,,0.00,TxWx,2013-01-16 08:16:00,
2013-01-16 03:21:00,34.0,25.0,30.14,WNW,292,1.0,2.0,72,0.00,,,0.00,TxWx,2013-01-16 08:21:00,
2013-01-16 03:26:00,34.0,25.0,30.14,WNW,292,0.0,1.0,73,0.00,,,0.00,TxWx,2013-01-16 08:26:00,
2013-01-16 03:31:00,34.0,25.0,30.13,SW,225,0.0,0.0,73,0.00,,,0.00,TxWx,2013-01-16 08:31:00,
2013-01-16 03:36:00,34.0,25.0,30.12,ENE,67,0.0,1.0,74,0.00,,,0.00,TxWx,2013-01-16 08:36:00,
2013-01-16 03:42:00,34.0,26.0,30.12,NNW,337,1.0,1.0,74,0.00,,,0.00,TxWx,2013-01-16 08:42:00,
2013-01-16 03:47:00,34.0,26.0,30.11,NNE,22,3.0,3.0,75,0.00,,,0.00,TxWx,2013-01-16 08:47:00,
2013-01-16 03:53:00,33.0,25.0,30.10,North,0,1.0,1.0,76,0.00,,,0.00,TxWx,2013-01-16 08:53:00,
2013-01-16 03:58:00,33.0,25.0,30.10,NNE,22,2.0,3.0,76,0.00,,,0.00,TxWx,2013-01-16 08:58:00,
2013-01-16 04:03:00,33.0,25.0,30.10,NNE,22,1.0,1.0,77,0.00,,,0.00,TxWx,2013-01-16 09:03:00,
2013-01-16 04:08:00,33.0,26.0,30.09,NNE,22,2.0,2.0,77,0.00,,,0.00,TxWx,2013-01-16 09:08:00,
2013-01-16 04:14:00,33.0,26.0,30.09,North,0,2.0,2.0,78,0.00,,,0.00,TxWx,2013-01-16 09:14:00,
2013-01-16 04:19:00,33.0,26.0,30.09,NNW,337,1.0,1.0,78,0.00,,,0.00,TxWx,2013-01-16 09:19:00,
2013-01-16 04:24:00,33.0,26.0,30.09,North,0,1.0,2.0,78,0.00,,,0.00,TxWx,2013-01-16 09:24:00,
2013-01-16 04:30:00,33.0,26.0,30.08,NNE,22,1.0,2.0,79,0.00,,,0.00,TxWx,2013-01-16 09:30:00,
2013-01-16 04:35:00,33.0,26.0,30.08,NE,45,1.0,2.0,79,0.00,,,0.00,TxWx,2013-01-16 09:35:00,
2013-01-16 04:40:00,33.0,26.0,30.07,NNE,22,1.0,1.0,80,0.00,,,0.00,TxWx,2013-01-16 09:40:00,
2013-01-16 04:46:00,33.0,26.0,30.07,NE,45,0.0,1.0,80,0.00,,,0.00,TxWx,2013-01-16 09:46:00,
2013-01-16 04:51:00,33.0,27.0,30.07,North,0,1.0,1.0,80,0.00,,,0.00,TxWx,2013-01-16 09:51:00,
2013-01-16 04:56:00,33.0,27.0,30.07,North,0,1.0,2.0,80,0.00,,,0.00,TxWx,2013-01-16 09:56:00,
2013-01-16 05:01:00,33.0,27.0,30.07,WNW,292,3.0,3.0,81,0.00,,,0.00,TxWx,2013-01-16 10:01:00,
2013-01-16 05:06:00,33.0,27.0,30.07,NNW,337,2.0,3.0,81,0.00,,,0.00,TxWx,2013-01-16 10:06:00,
2013-01-16 05:12:00,33.0,27.0,30.07,North,0,1.0,1.0,81,0.00,,,0.00,TxWx,2013-01-16 10:12:00,
2013-01-16 05:17:00,33.0,27.0,30.06,NNE,22,0.0,0.0,82,0.00,,,0.00,TxWx,2013-01-16 10:17:00,
2013-01-16 05:22:00,33.0,27.0,30.06,NNE,22,0.0,0.0,82,0.00,,,0.00,TxWx,2013-01-16 10:22:00,
2013-01-16 05:28:00,33.0,27.0,30.05,NE,45,0.0,0.0,82,0.00,,,0.00,TxWx,2013-01-16 10:28:00,
2013-01-16 05:33:00,33.0,27.0,30.06,North,0,0.0,0.0,82,0.00,,,0.00,TxWx,2013-01-16 10:33:00,
2013-01-16 05:38:00,33.0,27.0,30.07,NW,315,0.0,0.0,83,0.00,,,0.00,TxWx,2013-01-16 10:38:00,
2013-01-16 05:43:00,33.0,27.0,30.07,WNW,292,0.0,0.0,83,0.00,,,0.00,TxWx,2013-01-16 10:43:00,
2013-01-16 05:49:00,33.0,27.0,30.07,SSW,202,0.0,0.0,83,0.00,,,0.00,TxWx,2013-01-16 10:49:00,
2013-01-16 05:54:00,33.0,27.0,30.06,ESE,112,0.0,0.0,83,0.00,,,0.00,TxWx,2013-01-16 10:54:00,
2013-01-16 05:59:00,33.0,28.0,30.06,SE,135,0.0,0.0,84,0.00,,,0.00,TxWx,2013-01-16 10:59:00,
2013-01-16 06:05:00,33.0,28.0,30.06,SSW,202,0.0,0.0,84,0.00,,,0.00,TxWx,2013-01-16 11:05:00,
2013-01-16 06:10:00,33.0,28.0,30.06,SSW,202,0.0,0.0,84,0.00,,,0.00,TxWx,2013-01-16 11:10:00,
2013-01-16 06:15:00,33.0,28.0,30.05,South,180,0.0,0.0,84,0.00,,,0.00,TxWx,2013-01-16 11:15:00,
2013-01-16 06:20:00,33.0,28.0,30.05,SSW,202,0.0,0.0,84,0.00,,,0.00,TxWx,2013-01-16 11:20:00,
2013-01-16 06:25:00,33.0,28.0,30.04,SE,135,0.0,0.0,84,0.00,,,0.00,TxWx,2013-01-16 11:25:00,
2013-01-16 06:30:00,33.0,28.0,30.05,SSW,202,0.0,0.0,85,0.00,,,0.00,TxWx,2013-01-16 11:30:00,
2013-01-16 06:35:00,33.0,28.0,30.05,SW,225,0.0,0.0,85,0.00,,,0.00,TxWx,2013-01-16 11:35:00,
2013-01-16 06:40:00,33.0,28.0,30.05,SW,225,0.0,0.0,85,0.00,,,0.00,TxWx,2013-01-16 11:40:00,
2013-01-16 06:46:00,33.0,28.0,30.04,SSE,157,0.0,0.0,85,0.00,,,0.00,TxWx,2013-01-16 11:46:00,
2013-01-16 06:51:00,33.0,28.0,30.04,SSE,157,0.0,0.0,85,0.00,,,0.00,TxWx,2013-01-16 11:51:00,
2013-01-16 06:56:00,33.0,28.0,30.04,South,180,0.0,0.0,85,0.00,,,0.00,TxWx,2013-01-16 11:56:00,
2013-01-16 07:01:00,33.0,28.0,30.04,WSW,247,0.0,0.0,86,0.00,,,0.00,TxWx,2013-01-16 12:01:00,
2013-01-16 07:06:00,33.0,28.0,30.04,SSE,157,0.0,0.0,86,0.00,,,0.00,TxWx,2013-01-16 12:06:00,
2013-01-16 07:11:00,33.0,28.0,30.03,ESE,112,0.0,0.0,86,0.00,,,0.00,TxWx,2013-01-16 12:11:00,
2013-01-16 07:17:00,33.0,28.0,30.04,South,180,0.0,0.0,86,0.00,,,0.00,TxWx,2013-01-16 12:17:00,
2013-01-16 07:22:00,33.0,28.0,30.04,South,180,0.0,0.0,86,0.00,,,0.00,TxWx,2013-01-16 12:22:00,
2013-01-16 07:27:00,33.0,28.0,30.04,South,180,0.0,0.0,86,0.00,,,0.00,TxWx,2013-01-16 12:27:00,
2013-01-16 07:33:00,33.0,28.0,30.03,South,180,0.0,0.0,86,0.00,,,0.00,TxWx,2013-01-16 12:33:00,
2013-01-16 07:38:00,33.0,28.0,30.02,South,180,0.0,0.0,87,0.00,,,0.00,TxWx,2013-01-16 12:38:00,
2013-01-16 07:43:00,33.0,28.0,30.02,SSW,202,0.0,0.0,87,0.00,,,0.00,TxWx,2013-01-16 12:43:00,
2013-01-16 07:49:00,33.0,28.0,30.02,South,180,0.0,0.0,87,0.00,,,0.00,TxWx,2013-01-16 12:49:00,
2013-01-16 07:54:00,33.0,29.0,30.02,ESE,112,0.0,0.0,87,0.00,,,0.00,TxWx,2013-01-16 12:54:00,
2013-01-16 07:59:00,33.0,29.0,30.02,South,180,0.0,0.0,87,0.00,,,0.00,TxWx,2013-01-16 12:59:00,
2013-01-16 08:04:00,33.0,29.0,30.01,SE,135,0.0,0.0,87,0.00,,,0.00,TxWx,2013-01-16 13:04:00,
2013-01-16 08:09:00,33.0,29.0,30.01,WSW,247,0.0,0.0,87,0.00,,,0.00,TxWx,2013-01-16 13:09:00,
2013-01-16 08:14:00,33.0,29.0,30.02,SSW,202,0.0,0.0,88,0.00,,,0.00,TxWx,2013-01-16 13:14:00,
2013-01-16 08:19:00,33.0,29.0,30.02,SE,135,0.0,0.0,88,0.00,,,0.00,TxWx,2013-01-16 13:19:00,
2013-01-16 08:25:00,33.0,29.0,30.01,SSE,157,0.0,0.0,88,0.00,,,0.00,TxWx,2013-01-16 13:25:00,
2013-01-16 08:30:00,33.0,29.0,30.00,ESE,112,0.0,0.0,88,0.00,,,0.00,TxWx,2013-01-16 13:30:00,
2013-01-16 08:35:00,33.0,29.0,30.00,SE,135,0.0,0.0,88,0.00,,,0.00,TxWx,2013-01-16 13:35:00,
2013-01-16 08:40:00,33.0,29.0,30.00,East,90,0.0,0.0,88,0.00,,,0.00,TxWx,2013-01-16 13:40:00,
2013-01-16 08:45:00,33.0,29.0,29.99,ENE,67,0.0,0.0,88,0.00,,,0.00,TxWx,2013-01-16 13:45:00,
2013-01-16 08:51:00,33.0,29.0,29.99,NE,45,0.0,0.0,88,0.00,,,0.00,TxWx,2013-01-16 13:51:00,
2013-01-16 08:56:00,33.0,29.0,29.98,NNE,22,0.0,0.0,88,0.00,,,0.00,TxWx,2013-01-16 13:56:00,
2013-01-16 09:01:00,33.0,29.0,29.97,ENE,67,0.0,0.0,88,0.00,,,0.00,TxWx,2013-01-16 14:01:00,
2013-01-16 09:06:00,33.0,29.0,29.96,NE,45,0.0,0.0,89,0.00,,,0.00,TxWx,2013-01-16 14:06:00,
2013-01-16 09:11:00,33.0,29.0,29.96,NE,45,0.0,0.0,89,0.00,,,0.00,TxWx,2013-01-16 14:11:00,
2013-01-16 09:17:00,33.0,29.0,29.97,NNE,22,0.0,0.0,89,0.00,,,0.00,TxWx,2013-01-16 14:17:00,
2013-01-16 09:22:00,33.0,29.0,29.97,NNE,22,0.0,0.0,89,0.00,,,0.00,TxWx,2013-01-16 14:22:00,
2013-01-16 09:27:00,34.0,30.0,29.97,NNE,22,0.0,0.0,89,0.00,,,0.00,TxWx,2013-01-16 14:27:00,
2013-01-16 09:33:00,34.0,30.0,29.97,NE,45,0.0,0.0,89,0.00,,,0.00,TxWx,2013-01-16 14:33:00,
2013-01-16 09:38:00,34.0,30.0,29.96,NE,45,0.0,0.0,89,0.00,,,0.00,TxWx,2013-01-16 14:38:00,
2013-01-16 09:43:00,34.0,30.0,29.96,ENE,67,0.0,0.0,89,0.00,,,0.00,TxWx,2013-01-16 14:43:00,
2013-01-16 09:49:00,34.0,30.0,29.97,NNE,22,0.0,0.0,89,0.00,,,0.00,TxWx,2013-01-16 14:49:00,
2013-01-16 09:54:00,34.0,30.0,29.97,NNE,22,0.0,0.0,89,0.00,,,0.00,TxWx,2013-01-16 14:54:00,
2013-01-16 09:59:00,34.0,30.0,29.97,NNE,22,0.0,0.0,89,0.00,,,0.00,TxWx,2013-01-16 14:59:00,
2013-01-16 10:05:00,34.0,30.0,29.96,ENE,67,0.0,0.0,89,0.00,,,0.00,TxWx,2013-01-16 15:05:00,
2013-01-16 10:10:00,34.0,30.0,29.96,NE,45,0.0,0.0,90,0.00,,,0.00,TxWx,2013-01-16 15:10:00,
2013-01-16 10:15:00,34.0,30.0,29.95,NNE,22,0.0,0.0,90,0.00,,,0.00,TxWx,2013-01-16 15:15:00,
2013-01-16 10:20:00,34.0,30.0,29.94,ENE,67,0.0,0.0,90,0.00,,,0.00,TxWx,2013-01-16 15:20:00,
2013-01-16 10:25:00,34.0,30.0,29.95,North,0,0.0,0.0,90,0.00,,,0.00,TxWx,2013-01-16 15:25:00,
2013-01-16 10:31:00,34.0,30.0,29.95,North,0,0.0,0.0,90,0.00,,,0.00,TxWx,2013-01-16 15:31:00,
2013-01-16 10:36:00,34.0,30.0,29.95,NNE,22,0.0,0.0,90,0.00,,,0.00,TxWx,2013-01-16 15:36:00,
2013-01-16 10:41:00,34.0,30.0,29.95,NNE,22,0.0,0.0,90,0.00,,,0.00,TxWx,2013-01-16 15:41:00,
2013-01-16 10:46:00,34.0,30.0,29.95,North,0,0.0,0.0,90,0.00,,,0.00,TxWx,2013-01-16 15:46:00,
2013-01-16 10:52:00,34.0,30.0,29.92,ENE,67,0.0,0.0,90,0.00,,,0.00,TxWx,2013-01-16 15:52:00,
2013-01-16 10:57:00,34.0,30.0,29.93,NE,45,0.0,0.0,90,0.00,,,0.00,TxWx,2013-01-16 15:57:00,
2013-01-16 11:02:00,34.0,30.0,29.92,NNE,22,0.0,0.0,90,0.00,,,0.00,TxWx,2013-01-16 16:02:00,
2013-01-16 11:07:00,34.0,31.0,29.92,NNE,22,0.0,0.0,91,0.00,,,0.00,TxWx,2013-01-16 16:07:00,
2013-01-16 11:12:00,34.0,31.0,29.92,NNE,22,0.0,0.0,91,0.00,,,0.00,TxWx,2013-01-16 16:12:00,
2013-01-16 11:18:00,34.0,31.0,29.94,NNE,22,0.0,0.0,91,0.00,,,0.00,TxWx,2013-01-16 16:18:00,
2013-01-16 11:23:00,34.0,31.0,29.92,NE,45,0.0,0.0,91,0.00,,,0.00,TxWx,2013-01-16 16:23:00,
2013-01-16 11:28:00,34.0,31.0,29.92,NE,45,0.0,0.0,91,0.00,,,0.00,TxWx,2013-01-16 16:28:00,
2013-01-16 11:33:00,34.0,31.0,29.92,NE,45,0.0,0.0,91,0.00,,,0.00,TxWx,2013-01-16 16:33:00,
2013-01-16 11:39:00,34.0,31.0,29.90,East,90,0.0,0.0,91,0.00,,,0.00,TxWx,2013-01-16 16:39:00,
2013-01-16 11:44:00,34.0,31.0,29.90,SE,135,0.0,0.0,91,0.00,,,0.00,TxWx,2013-01-16 16:44:00,
2013-01-16 11:49:00,35.0,33.0,29.90,NNE,22,0.0,0.0,91,0.00,,,0.00,TxWx,2013-01-16 16:49:00,
2013-01-16 11:54:00,35.0,33.0,29.90,NE,45,0.0,0.0,91,0.00,,,0.00,TxWx,2013-01-16 16:54:00,
2013-01-16 11:59:00,35.0,33.0,29.90,North,0,0.0,0.0,91,0.00,,,0.00,TxWx,2013-01-16 16:59:00,
2013-01-16 12:04:00,35.0,33.0,29.91,North,0,0.0,0.0,91,0.00,,,0.00,TxWx,2013-01-16 17:04:00,
2013-01-16 12:09:00,35.0,33.0,29.91,NW,315,0.0,0.0,91,0.00,,,0.00,TxWx,2013-01-16 17:09:00,
2013-01-16 12:15:00,34.0,31.0,29.92,NE,45,0.0,0.0,91,0.00,,,0.00,TxWx,2013-01-16 17:15:00,
2013-01-16 12:20:00,34.0,31.0,29.90,NNE,22,0.0,0.0,91,0.00,,,0.00,TxWx,2013-01-16 17:20:00,
2013-01-16 12:25:00,34.0,31.0,29.88,NE,45,0.0,0.0,91,0.00,,,0.00,TxWx,2013-01-16 17:25:00,
2013-01-16 12:30:00,34.0,31.0,29.87,NNE,22,0.0,0.0,91,0.00,,,0.00,TxWx,2013-01-16 17:30:00,
2013-01-16 12:35:00,34.0,31.0,29.86,NNE,22,0.0,0.0,91,0.00,,,0.00,TxWx,2013-01-16 17:35:00,
2013-01-16 12:40:00,35.0,33.0,29.87,NNE,22,0.0,0.0,92,0.00,,,0.00,TxWx,2013-01-16 17:40:00,
2013-01-16 12:45:00,35.0,33.0,29.85,NE,45,0.0,0.0,91,0.00,,,0.00,TxWx,2013-01-16 17:45:00,
2013-01-16 12:51:00,35.0,33.0,29.84,NE,45,0.0,0.0,92,0.00,,,0.00,TxWx,2013-01-16 17:51:00,
2013-01-16 12:56:00,35.0,33.0,29.81,East,90,0.0,0.0,92,0.00,,,0.00,TxWx,2013-01-16 17:56:00,
2013-01-16 13:01:00,35.0,33.0,29.80,East,90,0.0,0.0,92,0.00,,,0.00,TxWx,2013-01-16 18:01:00,
2013-01-16 13:07:00,35.0,33.0,29.82,East,90,0.0,0.0,92,0.00,,,0.00,TxWx,2013-01-16 18:07:00,
2013-01-16 13:12:00,35.0,33.0,29.83,NNE,22,0.0,0.0,92,0.00,,,0.00,TxWx,2013-01-16 18:12:00,
2013-01-16 13:17:00,35.0,33.0,29.82,NE,45,0.0,0.0,92,0.00,,,0.00,TxWx,2013-01-16 18:17:00,
2013-01-16 13:22:00,35.0,33.0,29.81,SSW,202,0.0,0.0,92,0.00,,,0.00,TxWx,2013-01-16 18:22:00,
2013-01-16 13:28:00,35.0,33.0,29.83,SW,225,0.0,0.0,92,0.00,,,0.00,TxWx,2013-01-16 18:28:00,
2013-01-16 13:33:00,35.0,33.0,29.84,NW,315,0.0,0.0,92,0.00,,,0.00,TxWx,2013-01-16 18:33:00,
2013-01-16 13:38:00,35.0,33.0,29.83,NW,315,0.0,0.0,92,0.00,,,0.00,TxWx,2013-01-16 18:38:00,
2013-01-16 13:44:00,35.0,33.0,29.82,SSW,202,0.0,0.0,92,0.00,,,0.00,TxWx,2013-01-16 18:44:00,
2013-01-16 13:49:00,35.0,33.0,29.82,WSW,247,0.0,0.0,92,0.00,,,0.00,TxWx,2013-01-16 18:49:00,
2013-01-16 13:54:00,35.0,33.0,29.82,South,180,0.0,0.0,92,0.00,,,0.00,TxWx,2013-01-16 18:54:00,
2013-01-16 13:59:00,35.0,33.0,29.83,West,270,0.0,0.0,92,0.00,,,0.00,TxWx,2013-01-16 18:59:00,
2013-01-16 14:00:00,36.0,34.0,29.82,SSW,202,0.0,0.0,94,0.00,,,0.00,TxWx,2013-01-16 19:00:00,
2013-01-16 14:01:00,36.0,34.0,29.82,South,180,0.0,0.0,94,0.00,,,0.00,TxWx,2013-01-16 19:01:00,
2013-01-16 14:02:00,36.0,34.0,29.82,SSW,202,0.0,0.0,94,0.00,,,0.00,TxWx,2013-01-16 19:02:00,
2013-01-16 14:03:00,36.0,34.0,29.82,SSW,202,0.0,0.0,94,0.00,,,0.00,TxWx,2013-01-16 19:03:00,
2013-01-16 14:04:00,36.0,34.0,29.82,South,180,0.0,0.0,94,0.00,,,0.00,TxWx,2013-01-16 19:04:00,
2013-01-16 14:05:00,35.0,33.0,29.84,WNW,292,0.0,0.0,92,0.00,,,0.00,TxWx,2013-01-16 19:05:00,
2013-01-16 14:06:00,36.0,34.0,29.82,South,180,0.0,0.0,94,0.00,,,0.00,TxWx,2013-01-16 19:06:00,
2013-01-16 14:07:00,36.0,34.0,29.82,SSE,157,0.0,0.0,94,0.00,,,0.00,TxWx,2013-01-16 19:07:00,
2013-01-16 14:08:00,36.0,34.0,29.82,SSW,202,0.0,0.0,94,0.00,,,0.00,TxWx,2013-01-16 19:08:00,
2013-01-16 14:09:00,36.0,34.0,29.82,SSW,202,0.0,0.0,94,0.00,,,0.00,TxWx,2013-01-16 19:09:00,
2013-01-16 14:10:00,35.0,33.0,29.84,WNW,292,0.0,0.0,92,0.00,,,0.00,TxWx,2013-01-16 19:10:00,
2013-01-16 14:11:00,36.0,34.0,29.83,South,180,0.0,0.0,94,0.00,,,0.00,TxWx,2013-01-16 19:11:00,
2013-01-16 14:12:00,36.0,34.0,29.83,WNW,292,0.0,0.0,94,0.00,,,0.00,TxWx,2013-01-16 19:12:00,
2013-01-16 14:13:00,36.0,34.0,29.83,North,0,0.0,0.0,94,0.00,,,0.00,TxWx,2013-01-16 19:13:00,
2013-01-16 14:14:00,36.0,34.0,29.83,WSW,247,0.0,0.0,94,0.00,,,0.00,TxWx,2013-01-16 19:14:00,
2013-01-16 14:15:00,35.0,33.0,29.84,WSW,247,0.0,0.0,92,0.00,,,0.00,TxWx,2013-01-16 19:15:00,
2013-01-16 14:16:00,36.0,34.0,29.82,South,180,0.0,0.0,94,0.00,,,0.00,TxWx,2013-01-16 19:16:00,
2013-01-16 14:17:00,36.0,34.0,29.82,SSW,202,0.0,0.0,94,0.00,,,0.00,TxWx,2013-01-16 19:17:00,
2013-01-16 14:18:00,36.0,34.0,29.82,South,180,0.0,0.0,94,0.00,,,0.00,TxWx,2013-01-16 19:18:00,
2013-01-16 14:19:00,36.0,34.0,29.82,SSW,202,0.0,0.0,94,0.00,,,0.00,TxWx,2013-01-16 19:19:00,
2013-01-16 14:20:00,36.0,34.0,29.82,South,180,0.0,0.0,94,0.00,,,0.00,TxWx,2013-01-16 19:20:00,
2013-01-16 14:21:00,35.0,33.0,29.84,SE,135,0.0,0.0,92,0.00,,,0.00,TxWx,2013-01-16 19:21:00,
2013-01-16 14:22:00,36.0,34.0,29.83,SSW,202,0.0,0.0,94,0.00,,,0.00,TxWx,2013-01-16 19:22:00,
2013-01-16 14:23:00,36.0,34.0,29.83,SW,225,0.0,0.0,94,0.00,,,0.00,TxWx,2013-01-16 19:23:00,
2013-01-16 14:24:00,36.0,34.0,29.83,SSW,202,0.0,0.0,94,0.00,,,0.00,TxWx,2013-01-16 19:24:00,
2013-01-16 14:25:00,36.0,34.0,29.83,SSW,202,0.0,0.0,94,0.00,,,0.00,TxWx,2013-01-16 19:25:00,
2013-01-16 14:26:00,35.0,33.0,29.83,SSW,202,0.0,0.0,92,0.00,,,0.00,TxWx,2013-01-16 19:26:00,
2013-01-16 14:27:00,36.0,34.0,29.83,SSW,202,0.0,0.0,94,0.00,,,0.00,TxWx,2013-01-16 19:27:00,
2013-01-16 14:28:00,36.0,34.0,29.83,South,180,0.0,0.0,94,0.00,,,0.00,TxWx,2013-01-16 19:28:00,
2013-01-16 14:30:00,36.0,34.0,29.83,West,270,0.0,0.0,94,0.00,,,0.00,TxWx,2013-01-16 19:30:00,
2013-01-16 14:31:00,36.0,34.0,29.83,SW,225,0.0,0.0,92,0.00,,,0.00,TxWx,2013-01-16 19:31:00,
2013-01-16 14:32:00,36.0,34.0,29.83,ENE,67,0.0,0.0,94,0.00,,,0.00,TxWx,2013-01-16 19:32:00,
2013-01-16 14:33:00,36.0,34.0,29.83,SW,225,0.0,0.0,94,0.00,,,0.00,TxWx,2013-01-16 19:33:00,
2013-01-16 14:34:00,36.0,34.0,29.83,North,0,0.0,0.0,94,0.00,,,0.00,TxWx,2013-01-16 19:34:00,
2013-01-16 14:35:00,36.0,34.0,29.83,ENE,67,0.0,0.0,94,0.00,,,0.00,TxWx,2013-01-16 19:35:00,
2013-01-16 14:36:00,36.0,34.0,29.82,NW,315,0.0,0.0,92,0.00,,,0.00,TxWx,2013-01-16 19:36:00,
2013-01-16 14:37:00,36.0,34.0,29.83,ENE,67,0.0,0.0,94,0.00,,,0.00,TxWx,2013-01-16 19:37:00,
2013-01-16 14:39:00,36.0,34.0,29.83,ESE,112,0.0,0.0,94,0.00,,,0.00,TxWx,2013-01-16 19:39:00,
2013-01-16 14:40:00,36.0,34.0,29.83,SSE,157,0.0,0.0,94,0.00,,,0.00,TxWx,2013-01-16 19:40:00,
2013-01-16 14:41:00,36.0,34.0,29.82,North,0,0.0,0.0,92,0.00,,,0.00,TxWx,2013-01-16 19:41:00,
2013-01-16 14:47:00,36.0,34.0,29.82,ESE,112,0.0,0.0,93,0.00,,,0.00,TxWx,2013-01-16 19:47:00,
2013-01-16 14:52:00,36.0,34.0,29.82,WSW,247,0.0,0.0,93,0.00,,,0.00,TxWx,2013-01-16 19:52:00,
2013-01-16 14:57:00,36.0,34.0,29.81,SE,135,0.0,0.0,92,0.00,,,0.00,TxWx,2013-01-16 19:57:00,
2013-01-16 15:02:00,36.0,34.0,29.84,SW,225,0.0,0.0,94,0.00,,,0.00,TxWx,2013-01-16 20:02:00,
2013-01-16 15:03:00,36.0,34.0,29.81,NW,315,0.0,0.0,92,0.00,,,0.00,TxWx,2013-01-16 20:03:00,
2013-01-16 15:08:00,36.0,34.0,29.81,West,270,0.0,0.0,93,0.00,,,0.00,TxWx,2013-01-16 20:08:00,
2013-01-16 15:09:00,36.0,34.0,29.84,ESE,112,0.0,0.0,94,0.00,,,0.00,TxWx,2013-01-16 20:09:00,
2013-01-16 15:13:00,36.0,34.0,29.81,SW,225,0.0,0.0,93,0.00,,,0.00,TxWx,2013-01-16 20:13:00,
2013-01-16 15:16:00,36.0,34.0,29.84,NNE,22,0.0,0.0,94,0.00,,,0.00,TxWx,2013-01-16 20:16:00,
2013-01-16 15:17:00,36.0,34.0,29.84,NNE,22,0.0,0.0,94,0.00,,,0.00,TxWx,2013-01-16 20:17:00,
2013-01-16 15:18:00,36.0,34.0,29.80,South,180,0.0,0.0,93,0.00,,,0.00,TxWx,2013-01-16 20:18:00,
2013-01-16 15:19:00,36.0,34.0,29.84,NNW,337,0.0,0.0,94,0.00,,,0.00,TxWx,2013-01-16 20:19:00,
2013-01-16 15:20:00,36.0,34.0,29.85,NNE,22,0.0,0.0,94,0.00,,,0.00,TxWx,2013-01-16 20:20:00,
2013-01-16 15:23:00,36.0,34.0,29.80,West,270,0.0,0.0,93,0.00,,,0.00,TxWx,2013-01-16 20:23:00,
2013-01-16 15:24:00,35.0,33.0,29.84,NNE,22,0.0,0.0,94,0.00,,,0.00,TxWx,2013-01-16 20:24:00,
2013-01-16 15:26:00,35.0,33.0,29.84,NW,315,0.0,0.0,94,0.00,,,0.00,TxWx,2013-01-16 20:26:00,
2013-01-16 15:28:00,35.0,33.0,29.84,WNW,292,0.0,0.0,94,0.00,,,0.00,TxWx,2013-01-16 20:28:00,
2013-01-16 15:29:00,36.0,34.0,29.80,SW,225,0.0,0.0,93,0.00,,,0.00,TxWx,2013-01-16 20:29:00,
2013-01-16 15:34:00,36.0,34.0,29.80,WNW,292,0.0,0.0,93,0.00,,,0.00,TxWx,2013-01-16 20:34:00,
2013-01-16 15:39:00,36.0,34.0,29.81,WSW,247,0.0,0.0,93,0.00,,,0.00,TxWx,2013-01-16 20:39:00,
2013-01-16 15:44:00,36.0,34.0,29.80,SSW,202,0.0,0.0,93,0.00,,,0.00,TxWx,2013-01-16 20:44:00,
2013-01-16 15:49:00,36.0,34.0,29.80,South,180,0.0,0.0,93,0.00,,,0.00,TxWx,2013-01-16 20:49:00,
2013-01-16 15:54:00,36.0,34.0,29.80,South,180,0.0,0.0,93,0.00,,,0.00,TxWx,2013-01-16 20:54:00,
2013-01-16 15:59:00,36.0,34.0,29.79,SSE,157,0.0,0.0,93,0.00,,,0.00,TxWx,2013-01-16 20:59:00,
2013-01-16 16:04:00,36.0,34.0,29.79,East,90,0.0,0.0,93,0.00,,,0.00,TxWx,2013-01-16 21:04:00,
2013-01-16 16:09:00,36.0,34.0,29.80,South,180,0.0,0.0,93,0.00,,,0.00,TxWx,2013-01-16 21:09:00,
2013-01-16 16:15:00,36.0,34.0,29.80,WNW,292,0.0,0.0,93,0.00,,,0.00,TxWx,2013-01-16 21:15:00,
2013-01-16 16:20:00,36.0,34.0,29.80,NE,45,0.0,0.0,93,0.00,,,0.00,TxWx,2013-01-16 21:20:00,
2013-01-16 16:25:00,36.0,34.0,29.81,NW,315,0.0,0.0,93,0.00,,,0.00,TxWx,2013-01-16 21:25:00,
2013-01-16 16:30:00,36.0,34.0,29.81,SSW,202,0.0,0.0,93,0.00,,,0.00,TxWx,2013-01-16 21:30:00,
2013-01-16 16:35:00,36.0,34.0,29.81,West,270,0.0,0.0,93,0.00,,,0.00,TxWx,2013-01-16 21:35:00,
2013-01-16 16:40:00,36.0,34.0,29.80,NNE,22,0.0,0.0,93,0.00,,,0.00,TxWx,2013-01-16 21:40:00,
2013-01-16 16:45:00,36.0,34.0,29.80,East,90,0.0,0.0,93,0.00,,,0.00,TxWx,2013-01-16 21:45:00,
2013-01-16 16:51:00,36.0,34.0,29.81,NE,45,0.0,0.0,93,0.00,,,0.00,TxWx,2013-01-16 21:51:00,
2013-01-16 16:56:00,36.0,34.0,29.81,North,0,0.0,0.0,93,0.00,,,0.00,TxWx,2013-01-16 21:56:00,
2013-01-16 17:02:00,36.0,34.0,29.81,SSE,157,0.0,0.0,93,0.00,,,0.00,TxWx,2013-01-16 22:02:00,
2013-01-16 17:07:00,36.0,34.0,29.81,South,180,0.0,0.0,93,0.00,,,0.00,TxWx,2013-01-16 22:07:00,
2013-01-16 17:12:00,36.0,34.0,29.81,SSE,157,0.0,0.0,93,0.00,,,0.00,TxWx,2013-01-16 22:12:00,
2013-01-16 17:17:00,36.0,34.0,29.80,ESE,112,0.0,0.0,93,0.00,,,0.00,TxWx,2013-01-16 22:17:00,
2013-01-16 17:22:00,36.0,34.0,29.80,SE,135,0.0,0.0,93,0.00,,,0.00,TxWx,2013-01-16 22:22:00,
2013-01-16 17:28:00,36.0,34.0,29.80,SSW,202,0.0,0.0,93,0.00,,,0.00,TxWx,2013-01-16 22:28:00,
2013-01-16 17:33:00,36.0,34.0,29.79,SE,135,0.0,0.0,93,0.00,,,0.00,TxWx,2013-01-16 22:33:00,
2013-01-16 17:38:00,36.0,34.0,29.79,SE,135,0.0,0.0,93,0.00,,,0.00,TxWx,2013-01-16 22:38:00,
2013-01-16 17:43:00,36.0,34.0,29.78,South,180,0.0,0.0,93,0.00,,,0.00,TxWx,2013-01-16 22:43:00,
2013-01-16 17:49:00,37.0,35.0,29.79,SSW,202,0.0,0.0,93,0.00,,,0.00,TxWx,2013-01-16 22:49:00,
2013-01-16 17:54:00,37.0,35.0,29.79,SSW,202,0.0,0.0,93,0.00,,,0.00,TxWx,2013-01-16 22:54:00,
2013-01-16 17:59:00,37.0,35.0,29.79,South,180,0.0,0.0,93,0.00,,,0.00,TxWx,2013-01-16 22:59:00,
2013-01-16 18:05:00,37.0,35.0,29.79,South,180,0.0,0.0,93,0.00,,,0.00,TxWx,2013-01-16 23:05:00,
2013-01-16 18:10:00,37.0,35.0,29.79,SSE,157,0.0,0.0,93,0.00,,,0.00,TxWx,2013-01-16 23:10:00,
2013-01-16 18:15:00,37.0,35.0,29.79,South,180,0.0,0.0,93,0.00,,,0.00,TxWx,2013-01-16 23:15:00,
2013-01-16 18:20:00,37.0,35.0,29.80,SSW,202,0.0,0.0,93,0.00,,,0.00,TxWx,2013-01-16 23:20:00,
2013-01-16 18:25:00,37.0,35.0,29.80,South,180,0.0,0.0,93,0.00,,,0.00,TxWx,2013-01-16 23:25:00,
2013-01-16 18:30:00,37.0,35.0,29.80,SSE,157,0.0,0.0,93,0.00,,,0.00,TxWx,2013-01-16 23:30:00,
2013-01-16 18:36:00,37.0,35.0,29.80,SSE,157,0.0,0.0,93,0.00,,,0.00,TxWx,2013-01-16 23:36:00,
2013-01-16 18:41:00,37.0,35.0,29.80,South,180,0.0,0.0,93,0.00,,,0.00,TxWx,2013-01-16 23:41:00,
2013-01-16 18:46:00,37.0,35.0,29.79,SSE,157,0.0,0.0,93,0.00,,,0.00,TxWx,2013-01-16 23:46:00,
2013-01-16 18:52:00,37.0,35.0,29.80,South,180,0.0,0.0,93,0.00,,,0.00,TxWx,2013-01-16 23:52:00,
2013-01-16 18:57:00,37.0,35.0,29.80,South,180,0.0,0.0,93,0.00,,,0.00,TxWx,2013-01-16 23:57:00,
2013-01-16 19:03:00,37.0,35.0,29.80,South,180,0.0,0.0,93,0.00,,,0.00,TxWx,2013-01-17 00:03:00,
2013-01-16 19:08:00,37.0,35.0,29.81,South,180,0.0,0.0,93,0.00,,,0.00,TxWx,2013-01-17 00:08:00,
2013-01-16 19:13:00,37.0,35.0,29.82,WNW,292,0.0,0.0,93,0.00,,,0.00,TxWx,2013-01-17 00:13:00,
2013-01-16 19:19:00,37.0,35.0,29.82,SSW,202,0.0,0.0,93,0.00,,,0.00,TxWx,2013-01-17 00:19:00,
2013-01-16 19:24:00,37.0,35.0,29.83,SSW,202,0.0,0.0,93,0.00,,,0.00,TxWx,2013-01-17 00:24:00,
2013-01-16 19:29:00,37.0,35.0,29.82,SSE,157,0.0,0.0,93,0.00,,,0.00,TxWx,2013-01-17 00:29:00,
2013-01-16 19:34:00,37.0,35.0,29.82,SSW,202,0.0,0.0,93,0.00,,,0.00,TxWx,2013-01-17 00:34:00,
2013-01-16 19:39:00,37.0,35.0,29.82,SE,135,0.0,0.0,93,0.00,,,0.00,TxWx,2013-01-17 00:39:00,
2013-01-16 19:45:00,37.0,35.0,29.81,SSE,157,0.0,0.0,93,0.00,,,0.00,TxWx,2013-01-17 00:45:00,
2013-01-16 19:50:00,37.0,35.0,29.81,SE,135,0.0,0.0,93,0.00,,,0.00,TxWx,2013-01-17 00:50:00,
2013-01-16 19:55:00,37.0,35.0,29.81,SE,135,0.0,0.0,93,0.00,,,0.00,TxWx,2013-01-17 00:55:00,
2013-01-16 20:00:00,37.0,35.0,29.82,South,180,0.0,0.0,93,0.00,,,0.00,TxWx,2013-01-17 01:00:00,
2013-01-16 20:05:00,37.0,35.0,29.82,SSE,157,0.0,0.0,93,0.00,,,0.00,TxWx,2013-01-17 01:05:00,
2013-01-16 20:11:00,37.0,35.0,29.82,SSW,202,0.0,0.0,93,0.00,,,0.00,TxWx,2013-01-17 01:11:00,
2013-01-16 20:16:00,37.0,35.0,29.82,SW,225,0.0,0.0,93,0.00,,,0.00,TxWx,2013-01-17 01:16:00,
2013-01-16 20:21:00,37.0,35.0,29.82,SE,135,0.0,0.0,93,0.00,,,0.00,TxWx,2013-01-17 01:21:00,
2013-01-16 20:26:00,37.0,35.0,29.81,South,180,0.0,0.0,93,0.00,,,0.00,TxWx,2013-01-17 01:26:00,
2013-01-16 20:32:00,37.0,35.0,29.81,SSE,157,0.0,0.0,94,0.00,,,0.00,TxWx,2013-01-17 01:32:00,
2013-01-16 20:37:00,37.0,35.0,29.81,SSE,157,0.0,0.0,93,0.00,,,0.00,TxWx,2013-01-17 01:37:00,
2013-01-16 20:43:00,37.0,35.0,29.81,SE,135,0.0,0.0,94,0.00,,,0.00,TxWx,2013-01-17 01:43:00,
2013-01-16 20:48:00,37.0,35.0,29.82,SE,135,0.0,0.0,94,0.00,,,0.00,TxWx,2013-01-17 01:48:00,
2013-01-16 20:54:00,37.0,35.0,29.81,South,180,0.0,0.0,94,0.00,,,0.00,TxWx,2013-01-17 01:54:00,
2013-01-16 20:59:00,37.0,35.0,29.82,South,180,0.0,0.0,94,0.00,,,0.00,TxWx,2013-01-17 01:59:00,
2013-01-16 21:04:00,37.0,35.0,29.82,SSW,202,0.0,0.0,94,0.00,,,0.00,TxWx,2013-01-17 02:04:00,
2013-01-16 21:09:00,37.0,35.0,29.82,SW,225,0.0,0.0,94,0.00,,,0.00,TxWx,2013-01-17 02:09:00,
2013-01-16 21:14:00,37.0,35.0,29.82,South,180,0.0,0.0,94,0.00,,,0.00,TxWx,2013-01-17 02:14:00,
2013-01-16 21:19:00,37.0,35.0,29.82,SW,225,0.0,0.0,94,0.00,,,0.00,TxWx,2013-01-17 02:19:00,
2013-01-16 21:24:00,37.0,35.0,29.82,SW,225,0.0,0.0,94,0.00,,,0.00,TxWx,2013-01-17 02:24:00,
2013-01-16 21:29:00,37.0,35.0,29.82,SSW,202,0.0,0.0,94,0.00,,,0.00,TxWx,2013-01-17 02:29:00,
2013-01-16 21:35:00,37.0,35.0,29.82,South,180,0.0,0.0,94,0.00,,,0.00,TxWx,2013-01-17 02:35:00,
2013-01-16 21:40:00,37.0,35.0,29.83,West,270,0.0,0.0,94,0.00,,,0.00,TxWx,2013-01-17 02:40:00,
2013-01-16 21:45:00,37.0,35.0,29.82,South,180,0.0,0.0,94,0.00,,,0.00,TxWx,2013-01-17 02:45:00,
2013-01-16 21:50:00,37.0,35.0,29.82,SSW,202,0.0,0.0,94,0.00,,,0.00,TxWx,2013-01-17 02:50:00,
2013-01-16 21:55:00,37.0,35.0,29.83,SE,135,0.0,0.0,94,0.00,,,0.00,TxWx,2013-01-17 02:55:00,
2013-01-16 22:01:00,37.0,35.0,29.83,SE,135,0.0,0.0,94,0.00,,,0.00,TxWx,2013-01-17 03:01:00,
2013-01-16 22:06:00,37.0,35.0,29.82,South,180,0.0,0.0,94,0.00,,,0.00,TxWx,2013-01-17 03:06:00,
2013-01-16 22:12:00,37.0,35.0,29.81,SE,135,0.0,0.0,94,0.00,,,0.00,TxWx,2013-01-17 03:12:00,
2013-01-16 22:17:00,37.0,35.0,29.82,South,180,0.0,0.0,94,0.00,,,0.00,TxWx,2013-01-17 03:17:00,
2013-01-16 22:22:00,37.0,35.0,29.82,South,180,0.0,0.0,94,0.00,,,0.00,TxWx,2013-01-17 03:22:00,
2013-01-16 22:27:00,37.0,35.0,29.81,SE,135,0.0,0.0,94,0.00,,,0.00,TxWx,2013-01-17 03:27:00,
2013-01-16 22:32:00,37.0,35.0,29.81,WNW,292,0.0,0.0,94,0.00,,,0.00,TxWx,2013-01-17 03:32:00,
2013-01-16 22:38:00,37.0,35.0,29.82,SSW,202,0.0,0.0,94,0.00,,,0.00,TxWx,2013-01-17 03:38:00,
2013-01-16 22:43:00,37.0,35.0,29.82,WSW,247,0.0,0.0,94,0.00,,,0.00,TxWx,2013-01-17 03:43:00,
2013-01-16 22:49:00,37.0,35.0,29.82,South,180,0.0,0.0,94,0.00,,,0.00,TxWx,2013-01-17 03:49:00,
2013-01-16 22:54:00,37.0,35.0,29.81,SSW,202,0.0,0.0,94,0.00,,,0.00,TxWx,2013-01-17 03:54:00,
2013-01-16 22:59:00,37.0,35.0,29.81,West,270,0.0,0.0,94,0.00,,,0.00,TxWx,2013-01-17 03:59:00,
2013-01-16 23:04:00,37.0,35.0,29.81,WSW,247,0.0,0.0,94,0.00,,,0.00,TxWx,2013-01-17 04:04:00,
2013-01-16 23:10:00,37.0,35.0,29.81,SSE,157,0.0,0.0,94,0.00,,,0.00,TxWx,2013-01-17 04:10:00,
2013-01-16 23:15:00,36.0,34.0,29.81,South,180,0.0,0.0,94,0.00,,,0.00,TxWx,2013-01-17 04:15:00,
2013-01-16 23:20:00,36.0,34.0,29.81,South,180,0.0,0.0,94,0.00,,,0.00,TxWx,2013-01-17 04:20:00,
2013-01-16 23:25:00,36.0,34.0,29.81,SSW,202,0.0,0.0,94,0.00,,,0.00,TxWx,2013-01-17 04:25:00,
2013-01-16 23:31:00,36.0,34.0,29.81,South,180,0.0,0.0,94,0.00,,,0.00,TxWx,2013-01-17 04:31:00,
2013-01-16 23:36:00,36.0,34.0,29.82,South,180,0.0,0.0,94,0.00,,,0.00,TxWx,2013-01-17 04:36:00,
2013-01-16 23:41:00,36.0,34.0,29.82,South,180,0.0,0.0,94,0.00,,,0.00,TxWx,2013-01-17 04:41:00,
2013-01-16 23:47:00,36.0,34.0,29.82,SSW,202,0.0,0.0,94,0.00,,,0.00,TxWx,2013-01-17 04:47:00,
2013-01-16 23:52:00,36.0,34.0,29.82,SW,225,0.0,0.0,94,0.00,,,0.00,TxWx,2013-01-17 04:52:00,
2013-01-16 23:57:00,36.0,34.0,29.82,SSW,202,0.0,0.0,94,0.00,,,0.00,TxWx,2013-01-17 04:57:00,